createdAt,value
2023-03-01T00:01:28.396Z,8.27
2023-03-01T00:06:29.492Z,9.23
2023-03-01T00:11:32.606Z,8.20
2023-03-01T00:16:38.822Z,7.72
2023-03-01T00:21:40.155Z,8.85
2023-03-01T00:26:41.191Z,9.55
2023-03-01T00:31:41.923Z,9.35
2023-03-01T00:36:42.665Z,9.13
2023-03-01T00:41:43.730Z,9.77
2023-03-01T00:46:44.486Z,9.15
2023-03-01T00:51:45.242Z,9.45
2023-03-01T00:56:46.114Z,9.05
2023-03-01T01:01:46.925Z,8.63
2023-03-01T01:06:47.687Z,9.73
2023-03-01T01:11:50.872Z,9.48
2023-03-01T01:21:52.862Z,9.73
2023-03-01T01:26:53.714Z,10.05
2023-03-01T01:31:54.537Z,9.82
2023-03-01T01:36:55.562Z,10.45
2023-03-01T01:41:56.288Z,10.45
2023-03-01T01:47:13.220Z,10.57
2023-03-01T01:52:22.361Z,10.05
2023-03-01T01:57:33.161Z,10.25
2023-03-01T02:02:34.231Z,11.52
2023-03-01T02:07:35.258Z,10.55
2023-03-01T02:12:37.603Z,10.70
2023-03-01T02:17:38.563Z,11.00
2023-03-01T02:22:39.989Z,11.63
2023-03-01T02:28:32.141Z,11.52
2023-03-01T02:33:36.295Z,10.80
2023-03-01T02:38:37.124Z,11.60
2023-03-01T02:43:38.146Z,10.68
2023-03-01T02:48:48.523Z,10.45
2023-03-01T02:57:22.158Z,11.93
2023-03-01T03:02:38.737Z,11.18
2023-03-01T03:07:52.012Z,12.70
2023-03-01T03:12:58.996Z,11.57
2023-03-01T03:17:59.984Z,11.55
2023-03-01T03:23:01.118Z,11.98
2023-03-01T03:28:02.871Z,11.70
2023-03-01T03:33:03.690Z,10.95
2023-03-01T03:38:09.507Z,12.27
2023-03-01T03:43:22.152Z,11.60
2023-03-01T03:48:24.150Z,12.40
2023-03-01T03:53:27.148Z,12.45
2023-03-01T03:58:27.904Z,13.05
2023-03-01T04:03:30.404Z,12.20
2023-03-01T04:08:31.483Z,13.27
2023-03-01T04:13:32.424Z,12.18
2023-03-01T04:18:33.179Z,12.25
2023-03-01T04:23:34.223Z,13.07
2023-03-01T04:28:40.623Z,11.52
2023-03-01T04:33:55.637Z,11.82
2023-03-01T04:38:57.139Z,13.65
2023-03-01T04:44:00.245Z,12.82
2023-03-01T04:54:02.175Z,12.65
2023-03-01T04:59:05.845Z,12.63
2023-03-01T05:04:07.536Z,13.07
2023-03-01T05:09:08.512Z,15.25
2023-03-01T05:14:09.577Z,13.70
2023-03-01T05:19:15.686Z,14.05
2023-03-01T05:24:17.032Z,13.20
2023-03-01T05:29:25.325Z,14.60
2023-03-01T05:34:29.098Z,13.73
2023-03-01T05:39:31.730Z,14.13
2023-03-01T05:44:32.510Z,12.95
2023-03-01T05:49:33.398Z,14.02
2023-03-01T05:54:34.425Z,14.32
2023-03-01T05:59:35.326Z,14.30
2023-03-01T06:04:36.310Z,13.75
2023-03-01T06:09:37.051Z,14.02
2023-03-01T06:14:38.165Z,14.00
2023-03-01T06:19:38.928Z,13.77
2023-03-01T06:24:39.741Z,13.80
2023-03-01T06:29:42.482Z,14.35
2023-03-01T06:34:43.729Z,13.70
2023-03-01T06:39:44.448Z,14.05
2023-03-01T06:44:46.073Z,13.93
2023-03-01T06:49:46.811Z,13.95
2023-03-01T06:54:47.550Z,13.82
2023-03-01T06:59:48.509Z,13.43
2023-03-01T07:04:50.942Z,13.65
2023-03-01T07:09:51.694Z,13.50
2023-03-01T07:14:52.504Z,12.95
2023-03-01T07:19:53.375Z,12.88
2023-03-01T07:24:54.399Z,13.05
2023-03-01T07:29:55.150Z,12.43
2023-03-01T07:34:55.994Z,13.38
2023-03-01T07:39:57.176Z,12.20
2023-03-01T07:44:57.940Z,12.50
2023-03-01T07:49:58.680Z,12.88
2023-03-01T07:54:59.447Z,13.10
2023-03-01T08:00:00.197Z,13.00
2023-03-01T08:05:01.315Z,13.73
2023-03-01T08:10:02.579Z,13.65
2023-03-01T08:15:05.059Z,13.25
2023-03-01T08:20:07.309Z,13.23
2023-03-01T08:25:09.238Z,12.67
2023-03-01T08:30:11.344Z,12.60
2023-03-01T08:35:12.381Z,13.97
2023-03-01T08:40:14.254Z,13.23
2023-03-01T08:45:18.322Z,13.05
2023-03-01T08:50:19.075Z,14.23
2023-03-01T08:55:19.873Z,14.60
2023-03-01T09:00:21.578Z,14.05
2023-03-01T09:05:22.432Z,13.15
2023-03-01T09:10:23.347Z,14.27
2023-03-01T09:15:24.245Z,14.10
2023-03-01T09:20:25.082Z,13.52
2023-03-01T09:25:25.856Z,14.07
2023-03-01T09:30:26.699Z,14.15
2023-03-01T09:35:28.278Z,13.85
2023-03-01T09:40:30.078Z,13.50
2023-03-01T09:45:38.522Z,13.93
2023-03-01T09:50:43.698Z,14.93
2023-03-01T09:56:11.258Z,14.00
2023-03-01T10:01:35.443Z,13.77
2023-03-01T10:06:36.394Z,13.95
2023-03-01T10:11:40.577Z,14.68
2023-03-01T10:16:58.138Z,14.63
2023-03-01T10:22:04.721Z,15.40
2023-03-01T10:27:17.868Z,14.55
2023-03-01T10:32:18.979Z,16.00
2023-03-01T10:37:26.151Z,15.45
2023-03-01T10:42:50.042Z,16.37
2023-03-01T10:48:19.485Z,14.52
2023-03-01T10:53:25.354Z,14.18
2023-03-01T10:58:26.206Z,15.18
2023-03-01T11:03:38.539Z,14.75
2023-03-01T11:08:46.034Z,14.77
2023-03-01T11:13:59.121Z,14.52
2023-03-01T11:20:35.979Z,13.82
2023-03-01T11:25:42.021Z,13.38
2023-03-01T11:31:26.954Z,13.75
2023-03-01T11:39:19.188Z,13.70
2023-03-01T11:44:32.060Z,14.18
2023-03-01T11:56:35.097Z,13.60
2023-03-01T12:02:19.381Z,13.73
2023-03-01T12:07:57.376Z,13.62
2023-03-01T12:16:42.553Z,14.35
2023-03-01T12:22:31.225Z,12.33
2023-03-01T12:30:52.822Z,13.02
2023-03-01T12:37:54.375Z,11.95
2023-03-01T12:46:06.238Z,11.68
2023-03-01T12:51:12.064Z,11.27
2023-03-01T12:56:18.782Z,11.90
2023-03-01T13:01:53.378Z,12.90
2023-03-01T13:07:24.963Z,13.15
2023-03-01T13:12:47.370Z,12.65
2023-03-01T13:17:50.168Z,13.25
2023-03-01T13:23:13.094Z,11.57
2023-03-01T13:35:04.971Z,11.27
2023-03-01T13:41:50.426Z,11.32
2023-03-01T13:46:53.743Z,11.15
2023-03-01T13:51:54.918Z,10.80
2023-03-01T13:56:58.086Z,11.30
2023-03-01T14:07:24.481Z,10.38
2023-03-01T14:13:16.118Z,10.68
2023-03-01T14:18:39.282Z,10.45
2023-03-01T14:23:42.384Z,10.80
2023-03-01T14:28:43.469Z,9.52
2023-03-01T14:33:55.679Z,10.55
2023-03-01T14:39:04.887Z,10.35
2023-03-01T14:44:13.465Z,8.55
2023-03-01T14:49:21.212Z,9.75
2023-03-01T14:54:59.502Z,9.18
2023-03-01T15:00:05.442Z,8.85
2023-03-01T15:05:09.399Z,9.68
2023-03-01T15:10:21.470Z,9.35
2023-03-01T15:15:38.108Z,8.75
2023-03-01T15:20:39.198Z,8.68
2023-03-01T15:25:45.191Z,8.98
2023-03-01T15:30:52.896Z,9.60
2023-03-01T15:35:56.957Z,8.75
2023-03-01T15:41:00.160Z,8.52
2023-03-01T15:46:01.595Z,9.15
2023-03-01T15:51:02.881Z,9.40
2023-03-01T15:56:07.504Z,9.57
2023-03-01T16:01:15.171Z,8.82
2023-03-01T16:06:16.054Z,8.48
2023-03-01T16:11:19.548Z,8.15
2023-03-01T16:16:21.194Z,7.80
2023-03-01T16:21:24.918Z,8.20
2023-03-01T16:26:25.962Z,7.62
2023-03-01T16:31:27.328Z,8.63
2023-03-01T16:36:28.700Z,8.45
2023-03-01T16:41:30.097Z,8.07
2023-03-01T16:46:31.283Z,7.87
2023-03-01T16:51:35.132Z,8.27
2023-03-01T16:56:37.835Z,8.05
2023-03-01T17:01:41.136Z,7.47
2023-03-01T17:06:42.057Z,8.02
2023-03-01T17:11:43.754Z,7.65
2023-03-01T17:16:45.255Z,7.82
2023-03-01T17:21:46.394Z,7.65
2023-03-01T17:26:47.161Z,8.35
2023-03-01T17:31:48.266Z,7.10
2023-03-01T17:36:51.335Z,8.43
2023-03-01T17:41:52.352Z,8.02
2023-03-01T17:46:53.140Z,7.37
2023-03-01T17:51:53.966Z,7.35
2023-03-01T17:56:55.787Z,7.82
2023-03-01T18:02:01.201Z,7.60
2023-03-01T18:07:02.141Z,7.47
2023-03-01T18:12:03.074Z,7.10
2023-03-01T18:17:11.309Z,7.30
2023-03-01T18:22:12.615Z,7.03
2023-03-01T18:27:14.025Z,7.35
2023-03-01T18:32:15.047Z,7.53
2023-03-01T18:37:17.287Z,7.20
2023-03-01T18:42:19.938Z,6.90
2023-03-01T18:47:20.722Z,7.12
2023-03-01T18:52:21.741Z,7.55
2023-03-01T18:57:22.512Z,6.65
2023-03-01T19:02:23.304Z,6.85
2023-03-01T19:07:24.734Z,7.43
2023-03-01T19:12:27.333Z,7.60
2023-03-01T19:17:30.362Z,7.60
2023-03-01T19:22:31.272Z,7.65
2023-03-01T19:27:32.157Z,8.00
2023-03-01T19:32:33.195Z,7.70
2023-03-01T19:37:34.584Z,8.05
2023-03-01T19:42:35.480Z,7.32
2023-03-01T19:47:36.352Z,8.00
2023-03-01T19:52:37.263Z,7.15
2023-03-01T19:57:38.060Z,7.37
2023-03-01T20:02:38.947Z,9.00
2023-03-01T20:07:40.026Z,8.57
2023-03-01T20:12:40.846Z,8.35
2023-03-01T20:17:41.665Z,8.45
2023-03-01T20:22:42.730Z,9.15
2023-03-01T20:27:46.761Z,8.82
2023-03-01T20:32:47.504Z,8.98
2023-03-01T20:37:51.801Z,9.55
2023-03-01T20:42:52.793Z,9.85
2023-03-01T20:47:54.775Z,9.93
2023-03-01T20:52:55.516Z,9.13
2023-03-01T20:57:56.418Z,9.48
2023-03-01T21:02:58.064Z,9.82
2023-03-01T21:08:01.938Z,9.82
2023-03-01T21:13:02.761Z,10.85
2023-03-01T21:18:03.628Z,9.30
2023-03-01T21:23:04.386Z,10.80
2023-03-01T21:28:05.169Z,10.60
2023-03-01T21:33:05.924Z,10.20
2023-03-01T21:38:06.779Z,9.90
2023-03-01T21:43:07.533Z,9.23
2023-03-01T21:48:08.303Z,9.55
2023-03-01T21:53:09.052Z,10.57
2023-03-01T21:58:10.118Z,10.77
2023-03-01T22:03:11.048Z,9.77
2023-03-01T22:08:11.934Z,10.18
2023-03-01T22:13:12.717Z,9.55
2023-03-01T22:18:13.686Z,9.80
2023-03-01T22:23:14.412Z,9.70
2023-03-01T22:28:15.198Z,10.27
2023-03-01T22:33:15.947Z,9.32
2023-03-01T22:38:16.861Z,9.93
2023-03-01T22:43:17.604Z,11.30
2023-03-01T22:48:18.392Z,9.85
2023-03-01T22:53:19.150Z,10.90
2023-03-01T22:58:20.781Z,11.18
2023-03-01T23:03:21.590Z,10.63
2023-03-01T23:08:22.463Z,10.38
2023-03-01T23:13:23.392Z,11.25
2023-03-01T23:18:24.328Z,10.93
2023-03-01T23:23:25.124Z,11.12
2023-03-01T23:28:26.077Z,11.43
2023-03-01T23:33:28.738Z,11.80
2023-03-01T23:38:29.716Z,11.98
2023-03-01T23:43:32.320Z,12.48
2023-03-01T23:48:33.428Z,11.80
2023-03-01T23:53:38.648Z,12.05
2023-03-01T23:58:39.682Z,12.45
